Time;durP1;ratioP1;P1;durP2;ratioP2;P2;SDS_P1;SDS_P2;PMS_P1;PMS_P2;Temp;Humidity;BMP_temperature;BMP_pressure;BME280_temperature;BME280_humidity;BME280_pressure;Samples;Min_cycle;Max_cycle;Signal;HPM_P1;HPM_P2
2021/08/17 00:01:40;;;;;;;26.42;17.60;;;;;;;;;;5073794;28;20472;-45
2021/08/17 00:04:06;;;;;;;24.23;16.10;;;;;;;;;;5073805;28;20486;-45
2021/08/17 00:06:32;;;;;;;27.05;15.52;;;;;;;;;;5072323;28;20103;-45
2021/08/17 00:08:58;;;;;;;24.75;16.10;;;;;;;;;;5072563;28;20027;-48
2021/08/17 00:11:24;;;;;;;26.83;18.63;;;;;;;;;;5073624;28;20381;-44
2021/08/17 00:13:50;;;;;;;24.73;16.13;;;;;;;;;;5073547;28;20090;-46
2021/08/17 00:16:16;;;;;;;25.98;18.70;;;;;;;;;;5073510;28;20113;-45
2021/08/17 00:18:43;;;;;;;26.00;17.73;;;;;;;;;;5073496;28;20024;-45
2021/08/17 00:21:09;;;;;;;23.05;16.48;;;;;;;;;;5073469;28;20056;-46
2021/08/17 00:23:35;;;;;;;26.85;17.45;;;;;;;;;;5073190;28;20091;-46
2021/08/17 00:26:01;;;;;;;26.80;16.65;;;;;;;;;;5072057;28;20027;-44
2021/08/17 00:28:27;;;;;;;19.25;14.10;;;;;;;;;;5073346;28;20025;-45
2021/08/17 00:30:53;;;;;;;22.67;16.77;;;;;;;;;;5072053;28;20035;-45
2021/08/17 00:33:19;;;;;;;24.20;16.33;;;;;;;;;;5073195;28;20024;-45
2021/08/17 00:35:45;;;;;;;24.02;17.58;;;;;;;;;;5073174;28;20028;-45
2021/08/17 00:38:11;;;;;;;22.50;16.88;;;;;;;;;;5073049;28;20058;-46
2021/08/17 00:40:37;;;;;;;23.90;17.25;;;;;;;;;;5073077;28;20492;-45
2021/08/17 00:43:04;;;;;;;20.98;15.63;;;;;;;;;;5072947;28;20024;-44
2021/08/17 00:45:30;;;;;;;25.85;17.90;;;;;;;;;;5073008;28;20020;-46
2021/08/17 00:47:57;;;;;;;21.05;15.93;;;;;;;;;;5073185;28;20094;-44
2021/08/17 00:50:24;;;;;;;21.55;16.17;;;;;;;;;;5073283;28;20054;-43
2021/08/17 00:52:54;;;;;;;21.90;15.93;;;;;;;;;;5073102;28;20024;-44
2021/08/17 00:55:20;;;;;;;21.45;15.50;;;;;;;;;;5072855;28;20074;-45
2021/08/17 00:57:47;;;;;;;24.70;17.10;;;;;;;;;;5072695;28;20384;-44
2021/08/17 01:00:13;;;;;;;22.55;16.30;;;;;;;;;;5072766;28;20024;-44
2021/08/17 01:02:41;;;;;;;28.67;16.10;;;;;;;;;;5072506;28;20031;-44
2021/08/17 01:05:07;;;;;;;25.83;16.10;;;;;;;;;;5072506;28;20024;-44
2021/08/17 01:07:33;;;;;;;26.33;17.13;;;;;;;;;;5072487;28;20384;-43
2021/08/17 01:09:59;;;;;;;18.88;14.48;;;;;;;;;;5072591;28;20047;-45
2021/08/17 01:12:25;;;;;;;23.52;15.95;;;;;;;;;;5072684;28;20024;-44
2021/08/17 01:14:52;;;;;;;25.35;15.10;;;;;;;;;;5072521;28;20024;-42
2021/08/17 01:17:18;;;;;;;25.52;16.10;;;;;;;;;;5071920;28;20538;-43
2021/08/17 01:19:45;;;;;;;23.80;16.08;;;;;;;;;;5072345;28;20541;-43
2021/08/17 01:22:11;;;;;;;24.40;17.35;;;;;;;;;;5072101;28;20053;-43
2021/08/17 01:24:37;;;;;;;26.50;18.92;;;;;;;;;;5072195;28;20055;-43
2021/08/17 01:27:03;;;;;;;30.50;19.45;;;;;;;;;;5072193;28;20017;-45
2021/08/17 01:29:30;;;;;;;34.50;21.60;;;;;;;;;;5072061;28;20058;-44
2021/08/17 01:31:57;;;;;;;34.58;21.80;;;;;;;;;;5070913;28;20097;-44
2021/08/17 01:34:23;;;;;;;35.05;20.80;;;;;;;;;;5071999;28;20135;-44
2021/08/17 01:36:49;;;;;;;33.25;20.92;;;;;;;;;;5072182;28;20078;-47
2021/08/17 01:39:16;;;;;;;27.77;17.55;;;;;;;;;;5071938;28;20024;-47
2021/08/17 01:41:42;;;;;;;28.25;17.52;;;;;;;;;;5071902;28;20020;-46
2021/08/17 01:44:10;;;;;;;29.35;17.55;;;;;;;;;;5071880;28;20082;-44
2021/08/17 01:46:36;;;;;;;21.95;16.50;;;;;;;;;;5071928;28;20025;-45
2021/08/17 01:49:02;;;;;;;27.45;18.10;;;;;;;;;;5071727;28;20033;-44
2021/08/17 01:51:28;;;;;;;23.25;17.00;;;;;;;;;;5071951;28;20033;-45
2021/08/17 01:53:54;;;;;;;23.27;16.55;;;;;;;;;;5071768;28;20025;-44
2021/08/17 01:56:20;;;;;;;30.80;16.90;;;;;;;;;;5071686;28;20016;-44
2021/08/17 01:58:46;;;;;;;25.92;14.18;;;;;;;;;;5071878;28;20023;-43
2021/08/17 02:01:13;;;;;;;21.92;14.88;;;;;;;;;;5071719;28;20013;-43
2021/08/17 02:03:39;;;;;;;25.15;15.93;;;;;;;;;;5071605;28;20032;-44
2021/08/17 02:06:06;;;;;;;28.77;16.20;;;;;;;;;;5071898;28;20362;-44
2021/08/17 02:08:32;;;;;;;27.38;16.40;;;;;;;;;;5071694;28;20035;-44
2021/08/17 02:10:58;;;;;;;20.95;13.90;;;;;;;;;;5070301;28;20032;-44
2021/08/17 02:13:27;;;;;;;26.70;16.48;;;;;;;;;;5070265;28;20047;-44
2021/08/17 02:15:53;;;;;;;26.25;15.32;;;;;;;;;;5071615;28;20024;-46
2021/08/17 02:18:19;;;;;;;24.52;15.05;;;;;;;;;;5071483;28;20415;-45
2021/08/17 02:20:45;;;;;;;30.33;19.27;;;;;;;;;;5071655;28;20094;-44
2021/08/17 02:23:12;;;;;;;30.20;18.55;;;;;;;;;;5071327;28;20053;-43
2021/08/17 02:25:38;;;;;;;27.20;18.58;;;;;;;;;;5071348;28;20036;-44
2021/08/17 02:28:04;;;;;;;31.45;20.00;;;;;;;;;;5071562;28;20068;-44
2021/08/17 02:30:30;;;;;;;32.10;19.85;;;;;;;;;;5075212;28;20029;-45
2021/08/17 02:32:56;;;;;;;31.42;22.85;;;;;;;;;;5075546;28;20035;-45
2021/08/17 02:35:22;;;;;;;30.70;18.90;;;;;;;;;;5075634;28;20128;-44
2021/08/17 02:37:49;;;;;;;28.10;16.00;;;;;;;;;;5075725;28;20677;-45
2021/08/17 02:40:15;;;;;;;25.45;17.05;;;;;;;;;;5075378;28;20035;-44
2021/08/17 02:42:42;;;;;;;25.85;15.60;;;;;;;;;;5075305;28;20055;-44
2021/08/17 02:45:08;;;;;;;31.58;16.63;;;;;;;;;;5075206;28;20025;-44
2021/08/17 02:47:34;;;;;;;25.38;15.80;;;;;;;;;;5075179;28;20495;-44
2021/08/17 02:50:00;;;;;;;23.25;14.98;;;;;;;;;;5075238;28;20062;-43
2021/08/17 02:52:27;;;;;;;20.88;13.98;;;;;;;;;;5075169;28;20020;-45
2021/08/17 02:54:53;;;;;;;25.67;13.98;;;;;;;;;;5075026;28;20530;-44
2021/08/17 02:57:20;;;;;;;24.40;14.30;;;;;;;;;;5075167;28;20123;-44
2021/08/17 02:59:46;;;;;;;17.55;12.80;;;;;;;;;;5075011;28;20031;-44
2021/08/17 03:02:12;;;;;;;20.05;13.10;;;;;;;;;;5074940;28;20017;-44
2021/08/17 03:04:38;;;;;;;23.75;13.93;;;;;;;;;;5073737;28;20048;-44
2021/08/17 03:07:04;;;;;;;16.70;12.95;;;;;;;;;;5074826;28;20035;-43
2021/08/17 03:09:30;;;;;;;18.45;12.15;;;;;;;;;;5073465;28;20028;-44
2021/08/17 03:11:56;;;;;;;21.40;12.32;;;;;;;;;;5073472;28;20048;-44
2021/08/17 03:14:22;;;;;;;16.60;12.13;;;;;;;;;;5074559;28;20380;-44
2021/08/17 03:16:49;;;;;;;18.15;11.07;;;;;;;;;;5073337;28;20115;-44
2021/08/17 03:19:15;;;;;;;19.08;11.35;;;;;;;;;;5074511;28;20027;-42
2021/08/17 03:21:41;;;;;;;18.58;11.15;;;;;;;;;;5074584;28;20489;-45
2021/08/17 03:24:07;;;;;;;20.45;12.60;;;;;;;;;;5074387;28;20048;-44
2021/08/17 03:26:33;;;;;;;21.10;12.85;;;;;;;;;;5073155;28;20028;-43
2021/08/17 03:28:59;;;;;;;18.65;12.18;;;;;;;;;;5074415;28;20554;-44
2021/08/17 03:31:25;;;;;;;26.08;13.60;;;;;;;;;;5074422;28;20116;-44
2021/08/17 03:33:52;;;;;;;20.23;13.20;;;;;;;;;;5074146;28;20036;-44
2021/08/17 03:36:18;;;;;;;22.35;13.48;;;;;;;;;;5074376;28;20025;-44
2021/08/17 03:38:44;;;;;;;19.17;12.05;;;;;;;;;;5075932;28;20465;-43
2021/08/17 03:41:10;;;;;;;16.15;11.23;;;;;;;;;;5073543;28;20040;-44
2021/08/17 03:43:37;;;;;;;18.70;12.35;;;;;;;;;;5073743;28;20453;-45
2021/08/17 03:46:05;;;;;;;17.98;11.82;;;;;;;;;;5073931;28;20033;-44
2021/08/17 03:48:31;;;;;;;20.33;12.50;;;;;;;;;;5073560;28;20060;-47
2021/08/17 03:50:57;;;;;;;18.25;12.02;;;;;;;;;;5073995;28;20024;-45
2021/08/17 03:53:23;;;;;;;19.75;12.05;;;;;;;;;;5072938;28;20089;-44
2021/08/17 03:55:49;;;;;;;17.30;11.38;;;;;;;;;;5073160;28;20029;-44
2021/08/17 03:58:15;;;;;;;16.25;11.50;;;;;;;;;;5073562;28;20028;-44
2021/08/17 04:00:41;;;;;;;19.10;10.68;;;;;;;;;;5073683;28;20070;-44
2021/08/17 04:03:08;;;;;;;14.10;10.45;;;;;;;;;;5073752;28;20103;-44
2021/08/17 04:05:34;;;;;;;16.52;11.27;;;;;;;;;;5073522;28;20423;-44
2021/08/17 04:08:02;;;;;;;16.40;10.02;;;;;;;;;;5073519;28;20136;-49
2021/08/17 04:10:28;;;;;;;14.15;10.48;;;;;;;;;;5073500;28;20036;-43
2021/08/17 04:12:54;;;;;;;16.30;11.02;;;;;;;;;;5073322;28;20024;-44
2021/08/17 04:15:20;;;;;;;18.38;11.15;;;;;;;;;;5073301;28;20028;-44
2021/08/17 04:17:46;;;;;;;14.68;10.48;;;;;;;;;;5073315;28;20047;-46
2021/08/17 04:20:12;;;;;;;11.93;9.23;;;;;;;;;;5073355;28;20051;-48
2021/08/17 04:22:38;;;;;;;14.40;9.95;;;;;;;;;;5073074;28;20048;-47
2021/08/17 04:25:05;;;;;;;16.88;11.90;;;;;;;;;;5073192;28;20025;-42
2021/08/17 04:27:31;;;;;;;19.23;12.90;;;;;;;;;;5073100;28;20021;-43
2021/08/17 04:29:57;;;;;;;25.83;13.95;;;;;;;;;;5073003;28;20021;-43
2021/08/17 04:32:23;;;;;;;17.75;13.07;;;;;;;;;;5073012;28;20024;-44
2021/08/17 04:34:49;;;;;;;23.35;16.45;;;;;;;;;;5073015;28;20392;-47
2021/08/17 04:37:15;;;;;;;27.02;18.98;;;;;;;;;;5073023;28;20388;-44
2021/08/17 04:39:41;;;;;;;32.42;19.42;;;;;;;;;;5072850;28;20094;-44
2021/08/17 04:42:07;;;;;;;31.02;18.63;;;;;;;;;;5073021;28;20489;-46
2021/08/17 04:44:34;;;;;;;29.20;18.60;;;;;;;;;;5072828;28;20154;-45
2021/08/17 04:47:00;;;;;;;30.50;18.85;;;;;;;;;;5072737;28;20500;-45
2021/08/17 04:49:26;;;;;;;31.88;20.00;;;;;;;;;;5072912;28;20417;-45
2021/08/17 04:51:52;;;;;;;36.20;19.40;;;;;;;;;;5071210;28;20024;-45
2021/08/17 04:54:18;;;;;;;27.05;16.90;;;;;;;;;;5072124;28;20059;-46
2021/08/17 04:56:44;;;;;;;25.10;15.70;;;;;;;;;;5072633;28;20025;-44
2021/08/17 04:59:10;;;;;;;21.40;14.65;;;;;;;;;;5072473;28;20020;-44
2021/08/17 05:01:36;;;;;;;21.63;14.38;;;;;;;;;;5071422;28;20024;-44
2021/08/17 05:04:04;;;;;;;18.92;12.73;;;;;;;;;;5072451;28;20020;-44
2021/08/17 05:06:30;;;;;;;19.45;12.45;;;;;;;;;;5072210;28;20103;-45
2021/08/17 05:08:56;;;;;;;19.60;12.18;;;;;;;;;;5071104;28;20039;-47
2021/08/17 05:11:22;;;;;;;22.20;12.43;;;;;;;;;;5072298;28;20074;-45
2021/08/17 05:13:48;;;;;;;16.88;11.32;;;;;;;;;;5072085;28;20021;-44
2021/08/17 05:16:14;;;;;;;16.67;11.50;;;;;;;;;;5072385;28;20016;-44
2021/08/17 05:18:40;;;;;;;18.55;11.98;;;;;;;;;;5070924;28;20063;-43
2021/08/17 05:21:06;;;;;;;15.27;12.13;;;;;;;;;;5072143;28;20021;-44
2021/08/17 05:23:32;;;;;;;13.52;11.73;;;;;;;;;;5070493;28;20075;-45
2021/08/17 05:25:58;;;;;;;15.32;11.57;;;;;;;;;;5072278;28;20085;-45
2021/08/17 05:28:24;;;;;;;14.77;10.68;;;;;;;;;;5072069;28;20028;-44
2021/08/17 05:30:50;;;;;;;11.88;9.27;;;;;;;;;;5071762;28;20028;-44
2021/08/17 05:33:16;;;;;;;13.80;10.02;;;;;;;;;;5071830;28;20078;-44
2021/08/17 05:35:43;;;;;;;11.98;9.40;;;;;;;;;;5071795;28;20036;-44
2021/08/17 05:38:10;;;;;;;14.38;10.38;;;;;;;;;;5071692;28;20107;-43
2021/08/17 05:40:36;;;;;;;12.15;9.98;;;;;;;;;;5071682;28;20027;-44
2021/08/17 05:43:03;;;;;;;15.07;9.70;;;;;;;;;;5071743;28;20025;-46
2021/08/17 05:45:29;;;;;;;15.27;9.32;;;;;;;;;;5071708;28;20029;-46
2021/08/17 05:47:55;;;;;;;10.82;8.50;;;;;;;;;;5071782;28;20107;-45
2021/08/17 05:50:21;;;;;;;14.20;8.70;;;;;;;;;;5070425;28;20520;-45
2021/08/17 05:52:48;;;;;;;12.43;9.30;;;;;;;;;;5071637;28;20077;-46
2021/08/17 05:55:14;;;;;;;15.43;9.77;;;;;;;;;;5071872;28;20123;-45
2021/08/17 05:57:40;;;;;;;15.50;9.95;;;;;;;;;;5071868;28;20028;-46
2021/08/17 06:00:13;;;;;;;11.82;8.93;;;;;;;;;;5072032;28;20021;-44
2021/08/17 06:02:39;;;;;;;10.93;9.30;;;;;;;;;;5071616;28;20056;-45
2021/08/17 06:05:05;;;;;;;11.75;9.18;;;;;;;;;;5071256;28;20021;-45
2021/08/17 06:07:31;;;;;;;16.80;9.77;;;;;;;;;;5071552;28;20033;-46
2021/08/17 06:09:57;;;;;;;10.63;9.13;;;;;;;;;;5071460;28;20021;-45
2021/08/17 06:12:23;;;;;;;11.15;8.13;;;;;;;;;;5071553;28;20035;-48
2021/08/17 06:14:49;;;;;;;14.52;7.80;;;;;;;;;;5071746;28;20460;-46
2021/08/17 06:17:15;;;;;;;10.65;8.25;;;;;;;;;;5071464;28;20020;-44
2021/08/17 06:19:41;;;;;;;11.60;7.43;;;;;;;;;;5071798;28;20028;-45
2021/08/17 06:22:08;;;;;;;15.48;8.20;;;;;;;;;;5071156;28;20044;-44
2021/08/17 06:24:35;;;;;;;8.82;7.60;;;;;;;;;;5071461;28;20075;-44
2021/08/17 06:27:01;;;;;;;10.63;7.43;;;;;;;;;;5071303;28;20074;-45
2021/08/17 06:29:27;;;;;;;10.35;7.43;;;;;;;;;;5071274;28;20094;-44
2021/08/17 06:31:53;;;;;;;9.25;7.95;;;;;;;;;;5071226;28;20044;-46
2021/08/17 06:34:19;;;;;;;10.15;6.88;;;;;;;;;;5071117;28;20024;-45
2021/08/17 06:36:45;;;;;;;9.95;7.53;;;;;;;;;;5069783;28;20495;-45
2021/08/17 06:39:11;;;;;;;12.43;7.63;;;;;;;;;;5069899;28;20027;-47
2021/08/17 06:41:37;;;;;;;12.50;7.90;;;;;;;;;;5071343;28;20092;-47
2021/08/17 06:44:03;;;;;;;10.60;7.22;;;;;;;;;;5071098;28;20441;-44
2021/08/17 06:46:29;;;;;;;13.95;7.03;;;;;;;;;;5071176;28;20075;-47
2021/08/17 06:48:56;;;;;;;11.13;7.63;;;;;;;;;;5071043;28;20021;-45
2021/08/17 06:51:22;;;;;;;9.30;7.15;;;;;;;;;;5070992;28;20024;-46
2021/08/17 06:53:48;;;;;;;11.75;7.03;;;;;;;;;;5070939;28;20034;-47
2021/08/17 06:56:14;;;;;;;11.40;7.78;;;;;;;;;;5071094;28;20040;-45
2021/08/17 06:58:40;;;;;;;8.43;7.07;;;;;;;;;;5070978;28;20029;-45
2021/08/17 07:01:07;;;;;;;10.65;6.35;;;;;;;;;;5070921;28;20017;-45
2021/08/17 07:03:33;;;;;;;9.88;5.97;;;;;;;;;;5070861;28;20103;-44
2021/08/17 07:05:59;;;;;;;9.38;5.90;;;;;;;;;;5071037;28;20028;-45
2021/08/17 07:08:25;;;;;;;5.63;4.85;;;;;;;;;;5070718;28;20029;-45
2021/08/17 07:10:51;;;;;;;10.05;6.00;;;;;;;;;;5070740;28;20036;-46
2021/08/17 07:13:17;;;;;;;7.47;5.50;;;;;;;;;;5070942;28;20086;-45
2021/08/17 07:15:43;;;;;;;8.45;5.55;;;;;;;;;;5071706;28;20487;-45
2021/08/17 07:18:09;;;;;;;10.70;5.72;;;;;;;;;;5074601;28;20548;-46
2021/08/17 07:20:37;;;;;;;8.90;5.93;;;;;;;;;;5074435;28;20139;-47
2021/08/17 07:23:03;;;;;;;7.65;5.10;;;;;;;;;;5074425;28;20439;-46
2021/08/17 07:25:29;;;;;;;9.32;5.00;;;;;;;;;;5074382;28;20043;-45
2021/08/17 07:27:55;;;;;;;10.13;5.18;;;;;;;;;;5074422;28;20086;-46
2021/08/17 07:30:21;;;;;;;6.25;4.90;;;;;;;;;;5073175;28;20051;-46
2021/08/17 07:32:47;;;;;;;5.18;4.68;;;;;;;;;;5074064;28;20404;-46
2021/08/17 07:35:16;;;;;;;5.70;4.78;;;;;;;;;;5074308;28;20396;-46
2021/08/17 07:37:42;;;;;;;7.30;5.30;;;;;;;;;;5074343;28;20392;-45
2021/08/17 07:40:09;;;;;;;6.00;4.70;;;;;;;;;;5074075;28;20023;-48
2021/08/17 07:42:35;;;;;;;5.80;4.97;;;;;;;;;;5074062;28;20070;-45
2021/08/17 07:45:02;;;;;;;7.78;5.65;;;;;;;;;;5073971;28;20470;-45
2021/08/17 07:47:28;;;;;;;8.75;5.68;;;;;;;;;;5073831;28;20028;-45
2021/08/17 07:49:54;;;;;;;5.78;4.70;;;;;;;;;;5073807;28;20017;-44
2021/08/17 07:52:20;;;;;;;7.80;5.22;;;;;;;;;;5072323;28;20042;-45
2021/08/17 07:54:46;;;;;;;6.85;5.88;;;;;;;;;;5073682;28;20059;-47
2021/08/17 07:57:12;;;;;;;6.47;5.13;;;;;;;;;;5073575;28;20024;-44
2021/08/17 07:59:38;;;;;;;5.45;4.88;;;;;;;;;;5073503;28;20021;-47
2021/08/17 08:02:04;;;;;;;5.80;5.07;;;;;;;;;;5073527;28;20071;-45
2021/08/17 08:04:30;;;;;;;6.10;5.45;;;;;;;;;;5072423;28;20028;-44
2021/08/17 08:06:56;;;;;;;7.75;5.20;;;;;;;;;;5072234;28;20037;-47
2021/08/17 08:09:22;;;;;;;6.70;4.85;;;;;;;;;;5073558;28;20020;-47
2021/08/17 08:11:48;;;;;;;6.30;4.82;;;;;;;;;;5073586;28;20024;-47
2021/08/17 08:14:14;;;;;;;7.22;4.97;;;;;;;;;;5073263;28;20025;-45
2021/08/17 08:16:41;;;;;;;5.35;4.65;;;;;;;;;;5073477;28;20047;-45
2021/08/17 08:19:07;;;;;;;6.28;4.80;;;;;;;;;;5072079;28;20493;-45
2021/08/17 08:21:33;;;;;;;5.03;4.53;;;;;;;;;;5073555;28;20035;-45
2021/08/17 08:24:00;;;;;;;9.52;5.07;;;;;;;;;;5073417;28;20065;-44
2021/08/17 08:26:26;;;;;;;5.50;4.88;;;;;;;;;;5073220;28;20025;-44
2021/08/17 08:28:52;;;;;;;7.85;5.18;;;;;;;;;;5072154;28;20040;-47
2021/08/17 08:31:20;;;;;;;6.20;4.57;;;;;;;;;;5073602;28;20071;-44
2021/08/17 08:33:46;;;;;;;6.00;4.57;;;;;;;;;;5073377;28;20031;-44
2021/08/17 08:36:12;;;;;;;6.45;4.72;;;;;;;;;;5073560;28;20063;-45
2021/08/17 08:38:38;;;;;;;6.50;4.78;;;;;;;;;;5073025;28;20046;-46
2021/08/17 08:41:04;;;;;;;8.57;5.07;;;;;;;;;;5073198;28;20074;-47
2021/08/17 08:43:30;;;;;;;6.40;4.72;;;;;;;;;;5072882;28;20025;-45
2021/08/17 08:45:56;;;;;;;6.50;4.43;;;;;;;;;;5072842;28;20024;-45
2021/08/17 08:48:23;;;;;;;5.35;4.65;;;;;;;;;;5071503;28;20039;-46
2021/08/17 08:50:50;;;;;;;7.30;4.95;;;;;;;;;;5072807;28;20477;-46
2021/08/17 08:53:16;;;;;;;5.60;4.88;;;;;;;;;;5072761;28;20027;-44
2021/08/17 08:55:44;;;;;;;6.78;4.85;;;;;;;;;;5072667;28;20032;-45
2021/08/17 08:58:10;;;;;;;5.80;4.55;;;;;;;;;;5071309;28;20531;-45
2021/08/17 09:00:36;;;;;;;15.70;5.30;;;;;;;;;;5072558;28;20067;-47
2021/08/17 09:03:02;;;;;;;5.40;4.47;;;;;;;;;;5072625;28;20027;-45
2021/08/17 09:05:28;;;;;;;5.00;4.40;;;;;;;;;;5071155;28;20058;-45
2021/08/17 09:07:56;;;;;;;16.38;5.80;;;;;;;;;;5072311;28;20024;-44
2021/08/17 09:10:27;;;;;;;6.68;5.10;;;;;;;;;;5072321;28;20388;-46
2021/08/17 09:12:53;;;;;;;7.80;4.70;;;;;;;;;;5072236;28;20112;-43
2021/08/17 09:15:20;;;;;;;7.18;4.47;;;;;;;;;;5072281;28;20104;-44
2021/08/17 09:18:00;;;;;;;6.68;4.70;;;;;;;;;;5072136;28;20027;-46
2021/08/17 09:20:33;;;;;;;7.95;4.85;;;;;;;;;;5072134;28;20493;-44
2021/08/17 09:22:59;;;;;;;5.90;4.50;;;;;;;;;;5071755;28;20465;-45
2021/08/17 09:25:34;;;;;;;10.52;4.97;;;;;;;;;;5072072;28;20032;-44
2021/08/17 09:28:20;;;;;;;7.38;5.07;;;;;;;;;;5072105;28;20061;-45
2021/08/17 09:30:46;;;;;;;5.40;4.90;;;;;;;;;;5071906;28;20017;-47
2021/08/17 09:33:13;;;;;;;7.03;5.45;;;;;;;;;;5071861;28;20024;-45
2021/08/17 09:35:39;;;;;;;7.50;5.07;;;;;;;;;;5071801;28;20112;-44
2021/08/17 09:38:09;;;;;;;12.27;5.47;;;;;;;;;;5071558;28;20469;-48
2021/08/17 09:40:36;;;;;;;11.85;5.30;;;;;;;;;;5071680;28;20586;-46
2021/08/17 09:43:16;;;;;;;7.88;5.13;;;;;;;;;;5071839;28;20381;-47
2021/08/17 09:45:42;;;;;;;6.22;5.63;;;;;;;;;;5071736;28;20031;-45
2021/08/17 09:48:11;;;;;;;6.95;5.60;;;;;;;;;;5071728;28;20021;-45
2021/08/17 09:50:41;;;;;;;7.68;5.78;;;;;;;;;;5071641;28;20024;-45
2021/08/17 09:53:12;;;;;;;7.13;5.68;;;;;;;;;;5071747;28;20044;-45
2021/08/17 09:55:44;;;;;;;7.80;5.10;;;;;;;;;;5071922;28;20051;-46
2021/08/17 09:58:24;;;;;;;6.25;5.07;;;;;;;;;;5071621;28;20021;-44
2021/08/17 10:00:51;;;;;;;10.48;5.55;;;;;;;;;;5070125;28;20025;-44
2021/08/17 10:03:18;;;;;;;12.60;5.53;;;;;;;;;;5071574;28;20392;-46
2021/08/17 10:05:44;;;;;;;7.40;5.70;;;;;;;;;;5071546;28;20025;-45
2021/08/17 10:08:12;;;;;;;8.15;5.45;;;;;;;;;;5071503;28;20016;-44
2021/08/17 10:10:38;;;;;;;6.57;5.50;;;;;;;;;;5071513;28;20024;-45
2021/08/17 10:13:04;;;;;;;7.85;5.70;;;;;;;;;;5071195;28;20025;-45
2021/08/17 10:15:31;;;;;;;5.40;4.63;;;;;;;;;;5070275;28;20055;-45
2021/08/17 10:18:00;;;;;;;7.50;5.60;;;;;;;;;;5069914;28;20115;-48
2021/08/17 10:20:26;;;;;;;5.20;4.63;;;;;;;;;;5071357;28;20020;-44
2021/08/17 10:22:53;;;;;;;7.60;5.03;;;;;;;;;;5071170;28;20045;-45
2021/08/17 10:25:19;;;;;;;7.72;5.70;;;;;;;;;;5071376;28;20029;-44
2021/08/17 10:27:45;;;;;;;7.25;5.32;;;;;;;;;;5071238;28;20020;-46
2021/08/17 10:30:14;;;;;;;5.57;4.97;;;;;;;;;;5071332;28;20027;-47
2021/08/17 10:32:47;;;;;;;6.13;5.38;;;;;;;;;;5071406;28;20111;-48
2021/08/17 10:35:29;;;;;;;5.95;5.35;;;;;;;;;;5071530;28;20036;-47
2021/08/17 10:38:07;;;;;;;6.15;5.15;;;;;;;;;;5071176;28;20033;-45
2021/08/17 10:40:51;;;;;;;5.72;4.88;;;;;;;;;;5071137;28;20488;-45
2021/08/17 10:43:25;;;;;;;5.60;5.10;;;;;;;;;;5071363;28;20113;-44
2021/08/17 10:45:52;;;;;;;6.28;4.53;;;;;;;;;;5071145;28;20032;-45
2021/08/17 10:48:37;;;;;;;6.93;5.30;;;;;;;;;;5069866;28;20067;-45
2021/08/17 10:51:03;;;;;;;5.80;5.28;;;;;;;;;;5073918;28;20060;-44
2021/08/17 10:53:36;;;;;;;5.40;4.70;;;;;;;;;;5075170;28;20036;-46
2021/08/17 10:56:18;;;;;;;5.47;4.80;;;;;;;;;;5075119;28;20126;-45
2021/08/17 10:58:49;;;;;;;6.68;5.25;;;;;;;;;;5074839;28;20031;-46
2021/08/17 11:01:35;;;;;;;5.88;5.25;;;;;;;;;;5074890;28;20020;-45
2021/08/17 11:04:11;;;;;;;5.10;4.60;;;;;;;;;;5067555;28;20112;-44
2021/08/17 11:06:39;;;;;;;6.47;5.35;;;;;;;;;;5074750;28;20028;-44
2021/08/17 11:09:09;;;;;;;5.47;4.80;;;;;;;;;;5074638;28;20039;-44
2021/08/17 11:11:36;;;;;;;6.57;4.85;;;;;;;;;;5074498;28;20028;-46
2021/08/17 11:14:02;;;;;;;5.95;4.78;;;;;;;;;;5074421;28;20064;-44
2021/08/17 11:16:28;;;;;;;6.30;5.10;;;;;;;;;;5074397;28;20365;-44
2021/08/17 11:18:56;;;;;;;5.00;4.50;;;;;;;;;;5074518;28;20096;-45
2021/08/17 11:21:32;;;;;;;6.85;4.97;;;;;;;;;;5074284;28;20389;-47
2021/08/17 11:24:09;;;;;;;5.25;4.75;;;;;;;;;;5074212;28;20101;-45
2021/08/17 11:26:35;;;;;;;6.05;5.32;;;;;;;;;;5074181;28;20440;-45
2021/08/17 11:29:01;;;;;;;6.60;4.40;;;;;;;;;;5074297;28;20060;-44
2021/08/17 11:31:27;;;;;;;4.78;4.38;;;;;;;;;;5074213;28;20028;-45
2021/08/17 11:34:12;;;;;;;5.85;4.72;;;;;;;;;;5074046;28;20381;-45
2021/08/17 11:36:38;;;;;;;6.80;5.13;;;;;;;;;;5074210;28;20126;-47
2021/08/17 11:39:37;;;;;;;5.60;4.65;;;;;;;;;;5074041;28;20542;-44
2021/08/17 11:42:11;;;;;;;5.85;4.20;;;;;;;;;;5040094;28;20562;-44
2021/08/17 11:44:37;;;;;;;;;;;;;;;;;;5074468;28;20108;-45
2021/08/17 11:47:21;;;;;;;7.53;4.80;;;;;;;;;;5073839;28;19995;-44
2021/08/17 11:49:48;;;;;;;10.30;4.65;;;;;;;;;;5074136;28;20086;-45
2021/08/17 11:52:25;;;;;;;7.70;5.13;;;;;;;;;;5073927;28;20039;-45
2021/08/17 11:54:58;;;;;;;6.95;4.63;;;;;;;;;;5073770;28;20024;-45
2021/08/17 11:57:28;;;;;;;5.55;4.90;;;;;;;;;;5073647;28;20024;-45
2021/08/17 11:59:54;;;;;;;5.70;4.45;;;;;;;;;;5073813;28;20039;-44
2021/08/17 12:02:22;;;;;;;7.18;5.18;;;;;;;;;;5071722;28;20025;-44
2021/08/17 12:04:49;;;;;;;6.65;4.68;;;;;;;;;;5073970;28;20033;-45
2021/08/17 12:07:15;;;;;;;5.00;4.50;;;;;;;;;;5072331;28;20029;-44
2021/08/17 12:09:43;;;;;;;5.32;4.65;;;;;;;;;;5073686;28;20032;-44
2021/08/17 12:12:10;;;;;;;4.63;4.22;;;;;;;;;;5073670;28;20032;-45
2021/08/17 12:14:36;;;;;;;5.00;4.50;;;;;;;;;;5073514;28;20029;-47
2021/08/17 12:17:03;;;;;;;4.72;4.32;;;;;;;;;;5073429;28;20021;-45
2021/08/17 12:19:29;;;;;;;7.07;4.68;;;;;;;;;;5073420;28;20020;-46
2021/08/17 12:21:58;;;;;;;5.32;4.53;;;;;;;;;;5071815;28;20025;-44
2021/08/17 12:24:25;;;;;;;4.97;4.47;;;;;;;;;;5073168;28;20082;-47
2021/08/17 12:27:02;;;;;;;5.60;5.00;;;;;;;;;;5073643;28;20028;-44
2021/08/17 12:29:38;;;;;;;5.97;4.43;;;;;;;;;;5073091;28;20090;-44
2021/08/17 12:32:34;;;;;;;5.75;4.07;;;;;;;;;;5073180;28;20058;-44
2021/08/17 12:35:06;;;;;;;4.90;4.40;;;;;;;;;;5064311;28;20097;-48
2021/08/17 12:37:37;;;;;;;5.40;4.40;;;;;;;;;;5073036;28;20362;-48
2021/08/17 12:40:04;;;;;;;5.68;4.28;;;;;;;;;;5073132;28;20481;-46
2021/08/17 12:42:30;;;;;;;9.10;4.43;;;;;;;;;;5073331;28;20032;-46
2021/08/17 12:44:56;;;;;;;9.32;4.78;;;;;;;;;;5073062;28;20028;-48
2021/08/17 12:47:26;;;;;;;4.72;4.28;;;;;;;;;;5071572;28;20025;-48
2021/08/17 12:49:59;;;;;;;7.40;4.43;;;;;;;;;;5072944;28;20044;-44
2021/08/17 12:52:26;;;;;;;4.50;4.10;;;;;;;;;;5073071;28;20094;-48
2021/08/17 12:54:53;;;;;;;5.43;4.40;;;;;;;;;;5072993;28;20486;-46
2021/08/17 12:57:20;;;;;;;4.85;3.97;;;;;;;;;;5055293;28;20607;-46
2021/08/17 12:59:46;;;;;;;4.60;4.20;;;;;;;;;;5071556;28;20540;-48
2021/08/17 13:02:12;;;;;;;5.13;4.55;;;;;;;;;;5073156;28;20133;-44
2021/08/17 13:04:38;;;;;;;5.05;4.55;;;;;;;;;;5072753;28;20029;-46
2021/08/17 13:07:05;;;;;;;4.97;3.85;;;;;;;;;;5071282;28;20074;-46
2021/08/17 13:09:31;;;;;;;8.13;4.30;;;;;;;;;;5071074;28;20472;-45
2021/08/17 13:11:57;;;;;;;5.97;4.13;;;;;;;;;;5072373;28;20032;-44
2021/08/17 13:14:23;;;;;;;4.57;4.18;;;;;;;;;;5071294;28;20079;-46
2021/08/17 13:16:49;;;;;;;4.07;3.70;;;;;;;;;;5072377;28;20043;-45
2021/08/17 13:19:15;;;;;;;4.32;3.92;;;;;;;;;;5070868;28;20366;-45
2021/08/17 13:21:42;;;;;;;5.68;3.88;;;;;;;;;;5072185;28;20025;-44
2021/08/17 13:24:08;;;;;;;7.20;4.10;;;;;;;;;;5071905;28;20083;-48
2021/08/17 13:26:34;;;;;;;6.07;4.18;;;;;;;;;;5072075;28;20523;-46
2021/08/17 13:29:01;;;;;;;5.95;3.58;;;;;;;;;;5071926;28;20024;-47
2021/08/17 13:31:27;;;;;;;6.00;4.22;;;;;;;;;;5071924;28;20028;-48
2021/08/17 13:33:53;;;;;;;5.20;4.00;;;;;;;;;;5071862;28;20042;-46
2021/08/17 13:36:19;;;;;;;4.47;3.63;;;;;;;;;;5071765;28;20139;-46
2021/08/17 13:38:45;;;;;;;5.38;4.10;;;;;;;;;;5070600;28;20107;-45
2021/08/17 13:41:11;;;;;;;5.93;3.45;;;;;;;;;;5071792;28;20572;-47
2021/08/17 13:43:37;;;;;;;5.43;3.75;;;;;;;;;;5070429;28;20028;-51
2021/08/17 13:46:03;;;;;;;5.72;3.90;;;;;;;;;;5071673;28;20028;-47
2021/08/17 13:48:30;;;;;;;5.53;4.00;;;;;;;;;;5071543;28;20028;-46
2021/08/17 13:50:56;;;;;;;3.85;3.50;;;;;;;;;;5071623;28;20040;-46
2021/08/17 13:53:22;;;;;;;4.18;3.78;;;;;;;;;;5071718;28;20031;-47
2021/08/17 13:55:49;;;;;;;3.88;3.47;;;;;;;;;;5071720;28;20074;-44
2021/08/17 13:58:15;;;;;;;5.18;3.60;;;;;;;;;;5071694;28;20100;-45
2021/08/17 14:00:41;;;;;;;4.32;3.63;;;;;;;;;;5071786;28;20141;-46
2021/08/17 14:03:07;;;;;;;4.18;3.78;;;;;;;;;;5071922;28;20418;-45
2021/08/17 14:05:34;;;;;;;3.72;3.42;;;;;;;;;;5071860;28;20043;-47
2021/08/17 14:08:00;;;;;;;5.55;3.78;;;;;;;;;;5071425;28;20036;-47
2021/08/17 14:10:26;;;;;;;5.60;3.58;;;;;;;;;;5071346;28;20103;-48
2021/08/17 14:12:52;;;;;;;3.78;3.47;;;;;;;;;;5071152;28;20095;-46
2021/08/17 14:15:18;;;;;;;5.32;3.80;;;;;;;;;;5071290;28;20557;-45
2021/08/17 14:17:44;;;;;;;3.83;3.50;;;;;;;;;;5071295;28;20023;-49
2021/08/17 14:20:11;;;;;;;4.65;3.75;;;;;;;;;;5071654;28;20456;-45
2021/08/17 14:22:37;;;;;;;4.03;3.60;;;;;;;;;;5071219;28;20078;-44
2021/08/17 14:25:03;;;;;;;4.55;3.28;;;;;;;;;;5070929;28;20028;-45
2021/08/17 14:27:29;;;;;;;5.70;3.42;;;;;;;;;;5069903;28;20102;-48
2021/08/17 14:29:55;;;;;;;3.80;3.40;;;;;;;;;;5071196;28;20021;-46
2021/08/17 14:32:21;;;;;;;5.25;3.42;;;;;;;;;;5071201;28;20028;-44